Saturday, December 15, 2018, 6:31 PM GMT
Back to Local

CWQH, Lennoxville

Location: , , Canada Lat: 45.367
Local Time: 6:31 PM GMT (18:31 GMT) Lon: -71.817
Time Zone: GMT Elev: 593 ft

Show me the last for .
Show Decoded

2018-12-15 18:00 METAR CWQH 151800Z AUTO 30008KT 03/M01 RMK AO1 SOG 11 T00321013 =
2018-12-15 17:00 METAR CWQH 151700Z AUTO 29007KT 03/M02 RMK AO1 SOG 11 T00341015 =
2018-12-15 16:00 METAR CWQH 151600Z AUTO 26007KT 03/M01 RMK AO1 SOG 12 T00321007 =
2018-12-15 15:00 METAR CWQH 151500Z AUTO 27007KT 03/01 RMK AO1 SOG 12 T00280005 =
2018-12-15 14:00 METAR CWQH 151400Z AUTO 24007KT 02/M01 RMK AO1 SOG 13 T00241007 =
2018-12-15 13:00 METAR CWQH 151300Z AUTO 25005KT 02/M01 RMK AO1 SOG 13 T00221008 =
2018-12-15 12:00 METAR CWQH 151200Z AUTO 23003KT 02/M01 RMK AO1 SOG 13 T00211010 =
2018-12-15 11:00 METAR CWQH 151100Z AUTO 28010G16KT 02/00 RMK AO1 SOG 13 PK WND 27021/1006
                 T00230000 =
2018-12-15 10:00 METAR CWQH 151000Z AUTO 26008KT 03/02 RMK AO1 SOG 14 PK WND 26025/0929 T00340017
                 =
2018-12-15 09:00 METAR CWQH 150900Z AUTO 23005KT 03/02 RMK AO1 SOG 14 T00310015 =
2018-12-15 08:00 METAR CWQH 150800Z AUTO 21007KT 02/02 RMK AO1 SOG 14 T00240018 =
2018-12-15 07:00 METAR CWQH 150700Z AUTO 19006KT 02/02 RMK AO1 SOG 15 T00150018 =
2018-12-15 06:00 METAR CWQH 150600Z AUTO 20005KT 02/02 RMK AO1 SOG 14 T00200015 50023 =
2018-12-15 05:00 METAR CWQH 150500Z AUTO 21004KT 02/01 RMK AO1 0PAST HR SOG 15 M P0004 T00160011
                 50023 =
2018-12-15 04:00 METAR CWQH 150400Z AUTO 20006KT 01/01 RMK AO1 SOG 15 T00140009 50013 =
2018-12-15 03:00 METAR CWQH 150300Z AUTO 20004KT 01/01 RMK AO1 SOG 15 T00140008 50013 =
2018-12-15 02:00 METAR CWQH 150200Z AUTO 23005KT 02/01 RMK AO1 3PAST HR SOG 15 M P0005 T00170010
                 50013 =
2018-12-15 01:00 METAR CWQH 150100Z AUTO 19003KT 02/01 RMK AO1 SOG 15 T00170008 =
2018-12-15 00:00 METAR CWQH 150000Z AUTO 31002KT 01/01 RMK AO1 3PAST HR SOG 15 M P0005 T00140005
                 50013 =
2018-12-14 23:00 METAR CWQH 142300Z AUTO 19007KT 02/01 RMK AO1 SOG 16 T00230007 =
2018-12-14 22:00 METAR CWQH 142200Z AUTO 19008KT 03/M00 RMK AO1 SOG 15 T00271003 =
2018-12-14 21:00 METAR CWQH 142100Z AUTO 19009KT 03/M00 RMK AO1 SOG 17 T00301003 =
2018-12-14 20:00 METAR CWQH 142000Z AUTO 19007KT 03/01 RMK AO1 SOG 17 T00310005 =
2018-12-14 19:00 METAR CWQH 141900Z AUTO 21007KT 03/M00 RMK AO1 SOG 18 T00331003 =

Support USWX by starting your Amazon purchase here.